sensor_id;sensor_type;location;lat;lon;timestamp;pressure;altitude;pressure_sealevel;temperature;humidity
66945;BME280;53853;51.982;5.928;2023-07-20T00:02:14;101325.31;;;18.32;69.15
66945;BME280;53853;51.982;5.928;2023-07-20T00:04:44;101318.38;;;18.22;69.11
66945;BME280;53853;51.982;5.928;2023-07-20T00:07:14;101324.91;;;18.13;69.52
66945;BME280;53853;51.982;5.928;2023-07-20T00:09:44;101325.84;;;18.05;69.75
66945;BME280;53853;51.982;5.928;2023-07-20T00:12:14;101325.06;;;17.97;69.96
66945;BME280;53853;51.982;5.928;2023-07-20T00:14:44;101326.31;;;17.94;70.34
66945;BME280;53853;51.982;5.928;2023-07-20T00:17:17;101325.34;;;17.87;70.34
66945;BME280;53853;51.982;5.928;2023-07-20T00:19:47;101321.53;;;17.81;70.72
66945;BME280;53853;51.982;5.928;2023-07-20T00:22:17;101323.94;;;17.76;70.89
66945;BME280;53853;51.982;5.928;2023-07-20T00:24:46;101328.03;;;17.72;71.37
66945;BME280;53853;51.982;5.928;2023-07-20T00:27:16;101326.72;;;17.68;71.34
66945;BME280;53853;51.982;5.928;2023-07-20T00:29:46;101315.03;;;17.61;71.57
66945;BME280;53853;51.982;5.928;2023-07-20T00:32:19;101327.81;;;17.59;71.86
66945;BME280;53853;51.982;5.928;2023-07-20T00:34:50;101314.91;;;17.54;71.92
66945;BME280;53853;51.982;5.928;2023-07-20T00:37:20;101316.94;;;17.52;72.02
66945;BME280;53853;51.982;5.928;2023-07-20T00:39:50;101314.63;;;17.49;72.52
66945;BME280;53853;51.982;5.928;2023-07-20T00:42:20;101318.53;;;17.46;72.66
66945;BME280;53853;51.982;5.928;2023-07-20T00:44:52;101326.81;;;17.45;73.11
66945;BME280;53853;51.982;5.928;2023-07-20T00:47:25;101329.69;;;17.43;73.11
66945;BME280;53853;51.982;5.928;2023-07-20T00:49:55;101326.31;;;17.41;73.20
66945;BME280;53853;51.982;5.928;2023-07-20T00:52:26;101316.41;;;17.42;73.22
66945;BME280;53853;51.982;5.928;2023-07-20T00:54:57;101317.59;;;17.39;73.55
66945;BME280;53853;51.982;5.928;2023-07-20T00:57:27;101324.16;;;17.36;73.59
66945;BME280;53853;51.982;5.928;2023-07-20T00:59:57;101321.19;;;17.31;74.15
66945;BME280;53853;51.982;5.928;2023-07-20T01:02:29;101320.09;;;17.26;74.22
66945;BME280;53853;51.982;5.928;2023-07-20T01:05:01;101312.19;;;17.24;73.96
66945;BME280;53853;51.982;5.928;2023-07-20T01:07:34;101312.00;;;17.26;74.00
66945;BME280;53853;51.982;5.928;2023-07-20T01:10:13;101312.81;;;17.26;74.03
66945;BME280;53853;51.982;5.928;2023-07-20T01:12:48;101314.88;;;17.24;73.87
66945;BME280;53853;51.982;5.928;2023-07-20T01:15:21;101322.94;;;17.24;74.28
66945;BME280;53853;51.982;5.928;2023-07-20T01:17:53;101328.53;;;17.23;74.72
66945;BME280;53853;51.982;5.928;2023-07-20T01:20:23;101334.63;;;17.16;75.19
66945;BME280;53853;51.982;5.928;2023-07-20T01:23:22;101333.78;;;17.16;75.19
66945;BME280;53853;51.982;5.928;2023-07-20T01:26:12;101340.19;;;17.15;75.55
66945;BME280;53853;51.982;5.928;2023-07-20T01:29:11;101337.88;;;17.12;75.81
66945;BME280;53853;51.982;5.928;2023-07-20T01:31:50;101345.59;;;17.15;75.68
66945;BME280;53853;51.982;5.928;2023-07-20T01:34:23;101336.47;;;17.16;75.70
66945;BME280;53853;51.982;5.928;2023-07-20T01:36:55;101340.56;;;17.12;76.23
66945;BME280;53853;51.982;5.928;2023-07-20T01:39:25;101333.13;;;17.14;76.20
66945;BME280;53853;51.982;5.928;2023-07-20T01:41:56;101341.22;;;17.14;76.26
66945;BME280;53853;51.982;5.928;2023-07-20T01:44:28;101340.38;;;17.13;76.14
66945;BME280;53853;51.982;5.928;2023-07-20T01:47:01;101335.34;;;17.10;75.89
66945;BME280;53853;51.982;5.928;2023-07-20T01:49:31;101343.63;;;17.09;75.87
66945;BME280;53853;51.982;5.928;2023-07-20T01:52:01;101338.59;;;17.06;75.81
66945;BME280;53853;51.982;5.928;2023-07-20T01:54:31;101337.75;;;17.05;75.56
66945;BME280;53853;51.982;5.928;2023-07-20T01:57:01;101341.63;;;17.02;75.66
66945;BME280;53853;51.982;5.928;2023-07-20T01:59:31;101346.72;;;16.97;75.77
66945;BME280;53853;51.982;5.928;2023-07-20T02:02:04;101343.53;;;16.94;75.83
66945;BME280;53853;51.982;5.928;2023-07-20T02:04:34;101340.19;;;16.92;75.46
66945;BME280;53853;51.982;5.928;2023-07-20T02:07:04;101336.84;;;16.90;75.97
66945;BME280;53853;51.982;5.928;2023-07-20T02:09:34;101337.22;;;16.87;76.03
66945;BME280;53853;51.982;5.928;2023-07-20T02:12:04;101343.75;;;16.84;76.44
66945;BME280;53853;51.982;5.928;2023-07-20T02:14:35;101343.94;;;16.82;76.32
66945;BME280;53853;51.982;5.928;2023-07-20T02:17:08;101334.38;;;16.80;76.38
66945;BME280;53853;51.982;5.928;2023-07-20T02:19:40;101343.44;;;16.79;76.00
66945;BME280;53853;51.982;5.928;2023-07-20T02:22:10;101344.28;;;16.79;76.19
66945;BME280;53853;51.982;5.928;2023-07-20T02:24:40;101347.16;;;16.78;76.10
66945;BME280;53853;51.982;5.928;2023-07-20T02:27:10;101343.81;;;16.76;76.25
66945;BME280;53853;51.982;5.928;2023-07-20T02:29:41;101346.69;;;16.74;76.37
66945;BME280;53853;51.982;5.928;2023-07-20T02:32:14;101344.16;;;16.73;75.91
66945;BME280;53853;51.982;5.928;2023-07-20T02:34:44;101346.19;;;16.71;76.83
66945;BME280;53853;51.982;5.928;2023-07-20T02:37:14;101351.75;;;16.69;76.09
66945;BME280;53853;51.982;5.928;2023-07-20T02:39:44;101337.84;;;16.65;76.71
66945;BME280;53853;51.982;5.928;2023-07-20T02:42:14;101346.91;;;16.64;76.16
66945;BME280;53853;51.982;5.928;2023-07-20T02:44:44;101339.00;;;16.63;76.16
66945;BME280;53853;51.982;5.928;2023-07-20T02:47:17;101349.13;;;16.61;75.86
66945;BME280;53853;51.982;5.928;2023-07-20T02:49:47;101355.03;;;16.56;75.77
66945;BME280;53853;51.982;5.928;2023-07-20T02:52:17;101350.84;;;16.54;75.68
66945;BME280;53853;51.982;5.928;2023-07-20T02:54:47;101349.53;;;16.50;75.83
66945;BME280;53853;51.982;5.928;2023-07-20T02:57:17;101361.47;;;16.47;75.65
66945;BME280;53853;51.982;5.928;2023-07-20T02:59:47;101356.44;;;16.44;75.69
66945;BME280;53853;51.982;5.928;2023-07-20T03:02:19;101366.53;;;16.42;75.93
66945;BME280;53853;51.982;5.928;2023-07-20T03:04:49;101371.41;;;16.38;75.95
66945;BME280;53853;51.982;5.928;2023-07-20T03:07:19;101372.63;;;16.36;76.20
66945;BME280;53853;51.982;5.928;2023-07-20T03:09:50;101374.66;;;16.34;75.98
66945;BME280;53853;51.982;5.928;2023-07-20T03:12:20;101371.97;;;16.34;75.63
66945;BME280;53853;51.982;5.928;2023-07-20T03:14:51;101378.53;;;16.31;75.80
66945;BME280;53853;51.982;5.928;2023-07-20T03:17:23;101376.34;;;16.26;75.86
66945;BME280;53853;51.982;5.928;2023-07-20T03:19:53;101381.09;;;16.24;75.91
66945;BME280;53853;51.982;5.928;2023-07-20T03:22:23;101378.72;;;16.21;76.09
66945;BME280;53853;51.982;5.928;2023-07-20T03:24:53;101389.84;;;16.18;76.18
66945;BME280;53853;51.982;5.928;2023-07-20T03:27:23;101389.19;;;16.16;76.00
66945;BME280;53853;51.982;5.928;2023-07-20T03:29:53;101386.84;;;16.13;76.15
66945;BME280;53853;51.982;5.928;2023-07-20T03:32:26;101385.31;;;16.10;76.38
66945;BME280;53853;51.982;5.928;2023-07-20T03:34:56;101381.97;;;16.08;77.12
66945;BME280;53853;51.982;5.928;2023-07-20T03:37:26;101385.84;;;16.06;77.62
66945;BME280;53853;51.982;5.928;2023-07-20T03:39:56;101379.63;;;16.05;77.23
66945;BME280;53853;51.982;5.928;2023-07-20T03:42:26;101381.47;;;16.05;76.76
66945;BME280;53853;51.982;5.928;2023-07-20T03:44:56;101374.59;;;16.02;77.39
66945;BME280;53853;51.982;5.928;2023-07-20T03:47:29;101379.13;;;16.02;77.87
66945;BME280;53853;51.982;5.928;2023-07-20T03:49:59;101377.47;;;16.01;77.38
66945;BME280;53853;51.982;5.928;2023-07-20T03:52:30;101380.16;;;16.01;76.81
66945;BME280;53853;51.982;5.928;2023-07-20T03:55:00;101375.63;;;15.93;77.77
66945;BME280;53853;51.982;5.928;2023-07-20T03:57:30;101385.72;;;15.91;78.13
66945;BME280;53853;51.982;5.928;2023-07-20T04:00:00;101385.03;;;15.89;77.90
66945;BME280;53853;51.982;5.928;2023-07-20T04:02:42;101386.88;;;15.88;78.14
66945;BME280;53853;51.982;5.928;2023-07-20T04:05:12;101390.41;;;15.89;78.47
66945;BME280;53853;51.982;5.928;2023-07-20T04:07:42;101390.41;;;15.89;78.11
66945;BME280;53853;51.982;5.928;2023-07-20T04:10:12;101393.09;;;15.89;78.19
66945;BME280;53853;51.982;5.928;2023-07-20T04:12:42;101399.34;;;15.89;77.63
66945;BME280;53853;51.982;5.928;2023-07-20T04:15:14;101399.34;;;15.89;77.54
66945;BME280;53853;51.982;5.928;2023-07-20T04:17:46;101394.13;;;15.88;77.48
66945;BME280;53853;51.982;5.928;2023-07-20T04:20:16;101399.66;;;15.86;77.54
66945;BME280;53853;51.982;5.928;2023-07-20T04:22:46;101393.44;;;15.86;77.38
66945;BME280;53853;51.982;5.928;2023-07-20T04:25:17;101390.75;;;15.86;77.64
66945;BME280;53853;51.982;5.928;2023-07-20T04:27:47;101390.75;;;15.86;77.44
66945;BME280;53853;51.982;5.928;2023-07-20T04:30:19;101395.13;;;15.87;77.32
66945;BME280;53853;51.982;5.928;2023-07-20T04:32:52;101406.88;;;15.86;77.51
66945;BME280;53853;51.982;5.928;2023-07-20T04:35:50;101398.97;;;15.84;77.82
66945;BME280;53853;51.982;5.928;2023-07-20T04:38:24;101405.88;;;15.87;77.58
66945;BME280;53853;51.982;5.928;2023-07-20T04:41:15;101407.56;;;15.88;77.37
66945;BME280;53853;51.982;5.928;2023-07-20T04:43:47;101410.25;;;15.88;77.82
66945;BME280;53853;51.982;5.928;2023-07-20T04:46:24;101408.56;;;15.87;77.88
66945;BME280;53853;51.982;5.928;2023-07-20T04:48:57;101416.47;;;15.88;78.31
66945;BME280;53853;51.982;5.928;2023-07-20T04:51:30;101411.06;;;15.88;78.17
66945;BME280;53853;51.982;5.928;2023-07-20T04:54:00;101416.47;;;15.88;78.30
66945;BME280;53853;51.982;5.928;2023-07-20T04:56:34;101412.78;;;15.89;78.29
66945;BME280;53853;51.982;5.928;2023-07-20T04:59:07;101420.66;;;15.91;78.13
66945;BME280;53853;51.982;5.928;2023-07-20T05:01:37;101419.47;;;15.93;78.22
66945;BME280;53853;51.982;5.928;2023-07-20T05:04:10;101419.97;;;15.97;78.21
66945;BME280;53853;51.982;5.928;2023-07-20T05:06:40;101420.47;;;16.01;78.06
66945;BME280;53853;51.982;5.928;2023-07-20T05:09:10;101416.09;;;16.00;77.97
66945;BME280;53853;51.982;5.928;2023-07-20T05:11:40;101407.84;;;16.01;77.93
66945;BME280;53853;51.982;5.928;2023-07-20T05:14:12;101411.38;;;16.02;77.68
66945;BME280;53853;51.982;5.928;2023-07-20T05:16:42;101418.44;;;16.03;77.47
66945;BME280;53853;51.982;5.928;2023-07-20T05:19:14;101416.75;;;16.10;77.88
66945;BME280;53853;51.982;5.928;2023-07-20T05:21:44;101419.72;;;16.23;77.97
66945;BME280;53853;51.982;5.928;2023-07-20T05:24:15;101428.59;;;16.40;76.93
66945;BME280;53853;51.982;5.928;2023-07-20T05:26:45;101424.13;;;16.56;76.38
66945;BME280;53853;51.982;5.928;2023-07-20T05:29:15;101419.88;;;16.70;75.52
66945;BME280;53853;51.982;5.928;2023-07-20T05:31:45;101432.56;;;16.84;74.35
66945;BME280;53853;51.982;5.928;2023-07-20T05:34:17;101435.59;;;16.97;74.18
66945;BME280;53853;51.982;5.928;2023-07-20T05:36:47;101430.91;;;17.14;73.78
66945;BME280;53853;51.982;5.928;2023-07-20T05:39:17;101436.50;;;17.36;74.05
66945;BME280;53853;51.982;5.928;2023-07-20T05:41:47;101442.97;;;17.50;72.77
66945;BME280;53853;51.982;5.928;2023-07-20T05:44:17;101443.00;;;17.65;71.51
66945;BME280;53853;51.982;5.928;2023-07-20T05:46:47;101443.03;;;17.80;71.00
66945;BME280;53853;51.982;5.928;2023-07-20T05:49:22;101445.16;;;18.07;72.50
66945;BME280;53853;51.982;5.928;2023-07-20T05:51:52;101442.19;;;18.32;70.92
66945;BME280;53853;51.982;5.928;2023-07-20T05:54:23;101441.63;;;18.52;70.14
66945;BME280;53853;51.982;5.928;2023-07-20T05:56:53;101443.66;;;18.64;69.16
66945;BME280;53853;51.982;5.928;2023-07-20T05:59:24;101431.91;;;18.72;68.79
66945;BME280;53853;51.982;5.928;2023-07-20T06:01:54;101429.84;;;18.74;67.60
66945;BME280;53853;51.982;5.928;2023-07-20T06:04:27;101438.31;;;18.71;66.77
66945;BME280;53853;51.982;5.928;2023-07-20T06:06:57;101440.19;;;18.71;66.70
66945;BME280;53853;51.982;5.928;2023-07-20T06:09:27;101445.13;;;18.67;66.81
66945;BME280;53853;51.982;5.928;2023-07-20T06:11:56;101444.78;;;18.55;65.08
66945;BME280;53853;51.982;5.928;2023-07-20T06:14:26;101451.78;;;18.50;65.61
66945;BME280;53853;51.982;5.928;2023-07-20T06:16:56;101454.28;;;18.36;64.24
66945;BME280;53853;51.982;5.928;2023-07-20T06:19:29;101453.91;;;18.24;63.84
66945;BME280;53853;51.982;5.928;2023-07-20T06:21:59;101451.94;;;18.18;64.60
66945;BME280;53853;51.982;5.928;2023-07-20T06:24:29;101462.47;;;18.13;64.79
66945;BME280;53853;51.982;5.928;2023-07-20T06:26:58;101456.59;;;18.09;64.71
66945;BME280;53853;51.982;5.928;2023-07-20T06:29:29;101454.75;;;18.10;65.20
66945;BME280;53853;51.982;5.928;2023-07-20T06:31:59;101460.31;;;18.08;65.47
66945;BME280;53853;51.982;5.928;2023-07-20T06:34:31;101458.63;;;18.07;65.04
66945;BME280;53853;51.982;5.928;2023-07-20T06:37:04;101460.50;;;18.07;64.16
66945;BME280;53853;51.982;5.928;2023-07-20T06:39:34;101462.56;;;18.05;63.33
66945;BME280;53853;51.982;5.928;2023-07-20T06:42:04;101458.81;;;18.06;63.80
66945;BME280;53853;51.982;5.928;2023-07-20T06:44:34;101456.75;;;18.08;64.46
66945;BME280;53853;51.982;5.928;2023-07-20T06:47:05;101463.00;;;18.08;64.33
66945;BME280;53853;51.982;5.928;2023-07-20T06:49:37;101462.16;;;18.08;63.89
66945;BME280;53853;51.982;5.928;2023-07-20T06:52:07;101464.69;;;18.09;64.21
66945;BME280;53853;51.982;5.928;2023-07-20T06:54:37;101467.19;;;18.11;63.93
66945;BME280;53853;51.982;5.928;2023-07-20T06:57:07;101470.38;;;18.15;64.57
66945;BME280;53853;51.982;5.928;2023-07-20T06:59:37;101464.81;;;18.16;64.91
66945;BME280;53853;51.982;5.928;2023-07-20T07:02:07;101458.84;;;18.21;65.28
66945;BME280;53853;51.982;5.928;2023-07-20T07:04:39;101465.72;;;18.23;65.08
66945;BME280;53853;51.982;5.928;2023-07-20T07:07:09;101469.53;;;18.29;63.75
66945;BME280;53853;51.982;5.928;2023-07-20T07:09:39;101464.78;;;18.31;62.11
66945;BME280;53853;51.982;5.928;2023-07-20T07:12:09;101471.88;;;18.32;59.62
66945;BME280;53853;51.982;5.928;2023-07-20T07:14:39;101474.09;;;18.28;60.60
66945;BME280;53853;51.982;5.928;2023-07-20T07:17:09;101478.00;;;18.26;60.54
66945;BME280;53853;51.982;5.928;2023-07-20T07:19:42;101476.97;;;18.27;60.25
66945;BME280;53853;51.982;5.928;2023-07-20T07:22:11;101481.91;;;18.23;59.59
66945;BME280;53853;51.982;5.928;2023-07-20T07:24:41;101474.38;;;18.19;59.43
66945;BME280;53853;51.982;5.928;2023-07-20T07:27:11;101482.63;;;18.17;59.71
66945;BME280;53853;51.982;5.928;2023-07-20T07:29:42;101481.44;;;18.20;60.27
66945;BME280;53853;51.982;5.928;2023-07-20T07:32:13;101480.06;;;18.24;60.53
66945;BME280;53853;51.982;5.928;2023-07-20T07:34:46;101485.38;;;18.32;60.49
66945;BME280;53853;51.982;5.928;2023-07-20T07:37:16;101482.94;;;18.37;60.38
66945;BME280;53853;51.982;5.928;2023-07-20T07:39:46;101485.28;;;18.40;59.95
66945;BME280;53853;51.982;5.928;2023-07-20T07:42:16;101479.97;;;18.47;59.47
66945;BME280;53853;51.982;5.928;2023-07-20T07:44:46;101493.72;;;18.52;59.13
66945;BME280;53853;51.982;5.928;2023-07-20T07:47:16;101487.78;;;18.57;58.83
66945;BME280;53853;51.982;5.928;2023-07-20T07:49:49;101482.19;;;18.58;59.09
66945;BME280;53853;51.982;5.928;2023-07-20T07:52:18;101483.94;;;18.66;59.58
66945;BME280;53853;51.982;5.928;2023-07-20T07:54:48;101483.84;;;18.74;57.86
66945;BME280;53853;51.982;5.928;2023-07-20T07:57:18;101478.34;;;18.82;57.74
66945;BME280;53853;51.982;5.928;2023-07-20T07:59:48;101482.81;;;18.90;58.08
66945;BME280;53853;51.982;5.928;2023-07-20T08:02:18;101481.88;;;18.98;57.94
66945;BME280;53853;51.982;5.928;2023-07-20T08:04:51;101481.00;;;19.12;57.92
66945;BME280;53853;51.982;5.928;2023-07-20T08:07:21;101490.34;;;19.31;57.93
66945;BME280;53853;51.982;5.928;2023-07-20T08:09:51;101486.56;;;19.47;54.75
66945;BME280;53853;51.982;5.928;2023-07-20T08:12:21;101494.09;;;19.52;54.27
66945;BME280;53853;51.982;5.928;2023-07-20T08:14:52;101483.09;;;19.53;53.67
66945;BME280;53853;51.982;5.928;2023-07-20T08:17:22;101491.41;;;19.52;54.45
66945;BME280;53853;51.982;5.928;2023-07-20T08:19:54;101486.19;;;19.50;54.12
66945;BME280;53853;51.982;5.928;2023-07-20T08:22:24;101479.75;;;19.51;55.20
66945;BME280;53853;51.982;5.928;2023-07-20T08:24:54;101491.88;;;19.55;55.62
66945;BME280;53853;51.982;5.928;2023-07-20T08:27:24;101491.44;;;19.59;56.24
66945;BME280;53853;51.982;5.928;2023-07-20T08:29:54;101496.41;;;19.55;55.51
66945;BME280;53853;51.982;5.928;2023-07-20T08:32:25;101494.97;;;19.52;55.15
66945;BME280;53853;51.982;5.928;2023-07-20T08:34:57;101495.53;;;19.48;54.36
66945;BME280;53853;51.982;5.928;2023-07-20T08:37:27;101499.44;;;19.45;55.69
66945;BME280;53853;51.982;5.928;2023-07-20T08:39:57;101501.13;;;19.46;55.92
66945;BME280;53853;51.982;5.928;2023-07-20T08:42:27;101497.38;;;19.47;55.20
66945;BME280;53853;51.982;5.928;2023-07-20T08:44:58;101501.19;;;19.53;55.64
66945;BME280;53853;51.982;5.928;2023-07-20T08:47:29;101503.56;;;19.63;56.47
66945;BME280;53853;51.982;5.928;2023-07-20T08:50:03;101497.00;;;19.72;55.36
66945;BME280;53853;51.982;5.928;2023-07-20T08:52:35;101496.06;;;19.80;54.10
66945;BME280;53853;51.982;5.928;2023-07-20T08:55:06;101499.06;;;19.91;54.61
66945;BME280;53853;51.982;5.928;2023-07-20T08:57:37;101503.94;;;20.03;54.48
66945;BME280;53853;51.982;5.928;2023-07-20T09:00:11;101499.19;;;20.05;50.98
66945;BME280;53853;51.982;5.928;2023-07-20T09:02:46;101498.13;;;20.06;49.33
66945;BME280;53853;51.982;5.928;2023-07-20T09:05:19;101499.41;;;20.10;48.79
66945;BME280;53853;51.982;5.928;2023-07-20T09:07:50;101490.50;;;20.16;50.13
66945;BME280;53853;51.982;5.928;2023-07-20T09:10:21;101488.94;;;20.29;50.89
66945;BME280;53853;51.982;5.928;2023-07-20T09:12:51;101488.81;;;20.43;52.27
66945;BME280;53853;51.982;5.928;2023-07-20T09:15:22;101486.06;;;20.65;51.57
66945;BME280;53853;51.982;5.928;2023-07-20T09:17:52;101486.78;;;20.87;52.84
66945;BME280;53853;51.982;5.928;2023-07-20T09:20:25;101488.72;;;21.07;53.17
66945;BME280;53853;51.982;5.928;2023-07-20T09:22:56;101482.91;;;21.23;53.81
66945;BME280;53853;51.982;5.928;2023-07-20T09:25:27;101478.34;;;21.37;50.03
66945;BME280;53853;51.982;5.928;2023-07-20T09:28:01;101482.56;;;21.53;50.10
66945;BME280;53853;51.982;5.928;2023-07-20T09:30:32;101488.66;;;21.68;49.07
66945;BME280;53853;51.982;5.928;2023-07-20T09:33:02;101490.09;;;21.84;49.71
66945;BME280;53853;51.982;5.928;2023-07-20T09:35:34;101487.16;;;21.99;50.94
66945;BME280;53853;51.982;5.928;2023-07-20T09:38:04;101486.53;;;22.11;50.83
66945;BME280;53853;51.982;5.928;2023-07-20T09:40:38;101477.72;;;22.22;51.05
66945;BME280;53853;51.982;5.928;2023-07-20T09:43:08;101480.06;;;22.32;50.62
66945;BME280;53853;51.982;5.928;2023-07-20T09:45:41;101486.91;;;22.41;47.70
66945;BME280;53853;51.982;5.928;2023-07-20T09:48:11;101477.31;;;22.38;44.07
66945;BME280;53853;51.982;5.928;2023-07-20T09:50:49;101474.63;;;22.38;46.59
66945;BME280;53853;51.982;5.928;2023-07-20T09:53:20;101473.75;;;22.45;46.05
66945;BME280;53853;51.982;5.928;2023-07-20T09:55:50;101474.13;;;22.55;45.92
66945;BME280;53853;51.982;5.928;2023-07-20T09:58:21;101479.97;;;22.65;47.36
66945;BME280;53853;51.982;5.928;2023-07-20T10:00:52;101469.50;;;22.69;46.86
66945;BME280;53853;51.982;5.928;2023-07-20T10:03:28;101475.56;;;22.64;46.43
66945;BME280;53853;51.982;5.928;2023-07-20T10:06:05;101469.31;;;22.64;47.45
66945;BME280;53853;51.982;5.928;2023-07-20T10:08:39;101475.56;;;22.64;47.78
66945;BME280;53853;51.982;5.928;2023-07-20T10:11:11;101476.63;;;22.56;47.21
66945;BME280;53853;51.982;5.928;2023-07-20T10:13:43;101475.63;;;22.51;47.71
66945;BME280;53853;51.982;5.928;2023-07-20T10:16:22;101473.56;;;22.46;45.97
66945;BME280;53853;51.982;5.928;2023-07-20T10:18:59;101467.69;;;22.42;46.15
66945;BME280;53853;51.982;5.928;2023-07-20T10:21:35;101475.41;;;22.46;46.62
66945;BME280;53853;51.982;5.928;2023-07-20T10:24:07;101467.44;;;22.57;46.45
66945;BME280;53853;51.982;5.928;2023-07-20T10:26:38;101469.09;;;22.65;43.92
66945;BME280;53853;51.982;5.928;2023-07-20T10:29:08;101472.25;;;22.62;44.32
66945;BME280;53853;51.982;5.928;2023-07-20T10:31:39;101470.75;;;22.73;45.84
66945;BME280;53853;51.982;5.928;2023-07-20T10:34:09;101467.56;;;22.83;44.22
66945;BME280;53853;51.982;5.928;2023-07-20T10:36:47;101469.38;;;22.95;45.12
66945;BME280;53853;51.982;5.928;2023-07-20T10:39:25;101466.63;;;23.02;44.51
66945;BME280;53853;51.982;5.928;2023-07-20T10:42:01;101463.06;;;23.08;45.65
66945;BME280;53853;51.982;5.928;2023-07-20T10:44:31;101461.34;;;23.14;44.46
66945;BME280;53853;51.982;5.928;2023-07-20T10:47:02;101461.16;;;23.09;42.91
66945;BME280;53853;51.982;5.928;2023-07-20T10:49:33;101456.81;;;23.08;44.35
66945;BME280;53853;51.982;5.928;2023-07-20T10:52:11;101454.47;;;23.11;44.98
66945;BME280;53853;51.982;5.928;2023-07-20T10:54:50;101445.88;;;23.14;44.37
66945;BME280;53853;51.982;5.928;2023-07-20T10:57:27;101451.09;;;23.16;44.96
66945;BME280;53853;51.982;5.928;2023-07-20T11:00:10;101446.31;;;23.11;42.25
66945;BME280;53853;51.982;5.928;2023-07-20T11:02:45;101443.00;;;23.09;43.65
66945;BME280;53853;51.982;5.928;2023-07-20T11:05:32;101456.34;;;23.04;43.05
66945;BME280;53853;51.982;5.928;2023-07-20T11:08:09;101449.28;;;23.03;43.45
66945;BME280;53853;51.982;5.928;2023-07-20T11:10:40;101447.56;;;23.09;43.58
66945;BME280;53853;51.982;5.928;2023-07-20T11:13:24;101444.81;;;23.15;43.07
66945;BME280;53853;51.982;5.928;2023-07-20T11:16:04;101450.00;;;23.24;43.62
66945;BME280;53853;51.982;5.928;2023-07-20T11:18:35;101451.72;;;23.18;42.94
66945;BME280;53853;51.982;5.928;2023-07-20T11:21:11;101445.88;;;23.14;43.56
66945;BME280;53853;51.982;5.928;2023-07-20T11:23:44;101441.91;;;23.10;44.05
66945;BME280;53853;51.982;5.928;2023-07-20T11:26:14;101439.81;;;23.06;45.03
66945;BME280;53853;51.982;5.928;2023-07-20T11:28:43;101438.41;;;23.03;43.95
66945;BME280;53853;51.982;5.928;2023-07-20T11:31:18;101437.34;;;23.11;44.86
66945;BME280;53853;51.982;5.928;2023-07-20T11:33:48;101426.69;;;23.09;43.83
66945;BME280;53853;51.982;5.928;2023-07-20T11:36:18;101428.69;;;23.21;44.94
66945;BME280;53853;51.982;5.928;2023-07-20T11:38:51;101420.88;;;23.31;44.33
66945;BME280;53853;51.982;5.928;2023-07-20T11:41:21;101418.53;;;23.34;43.14
66945;BME280;53853;51.982;5.928;2023-07-20T11:43:51;101416.03;;;23.33;42.43
66945;BME280;53853;51.982;5.928;2023-07-20T11:46:21;101419.22;;;23.30;43.97
66945;BME280;53853;51.982;5.928;2023-07-20T11:48:57;101414.81;;;23.29;44.04
66945;BME280;53853;51.982;5.928;2023-07-20T11:51:28;101416.31;;;23.25;44.04
66945;BME280;53853;51.982;5.928;2023-07-20T11:54:02;101412.41;;;23.14;44.08
66945;BME280;53853;51.982;5.928;2023-07-20T11:56:32;101411.00;;;23.05;44.41
66945;BME280;53853;51.982;5.928;2023-07-20T11:59:02;101415.19;;;23.01;44.70
66945;BME280;53853;51.982;5.928;2023-07-20T12:01:32;101416.66;;;22.96;44.76
66945;BME280;53853;51.982;5.928;2023-07-20T12:04:03;101422.56;;;22.93;45.58
66945;BME280;53853;51.982;5.928;2023-07-20T12:06:34;101415.72;;;22.84;45.60
66945;BME280;53853;51.982;5.928;2023-07-20T12:09:06;101413.00;;;22.77;45.39
66945;BME280;53853;51.982;5.928;2023-07-20T12:11:44;101404.47;;;22.74;46.08
66945;BME280;53853;51.982;5.928;2023-07-20T12:14:14;101411.75;;;22.80;45.22
66945;BME280;53853;51.982;5.928;2023-07-20T12:16:44;101407.50;;;22.91;45.08
66945;BME280;53853;51.982;5.928;2023-07-20T12:19:26;101404.72;;;23.11;45.60
66945;BME280;53853;51.982;5.928;2023-07-20T12:21:58;101404.38;;;23.26;46.09
66945;BME280;53853;51.982;5.928;2023-07-20T12:24:31;101405.63;;;23.30;44.22
66945;BME280;53853;51.982;5.928;2023-07-20T12:27:01;101402.72;;;23.25;43.79
66945;BME280;53853;51.982;5.928;2023-07-20T12:29:31;101397.69;;;23.28;44.89
66945;BME280;53853;51.982;5.928;2023-07-20T12:32:04;101394.41;;;23.45;45.04
66945;BME280;53853;51.982;5.928;2023-07-20T12:34:34;101400.34;;;23.60;44.50
66945;BME280;53853;51.982;5.928;2023-07-20T12:37:06;101391.66;;;23.70;44.31
66945;BME280;53853;51.982;5.928;2023-07-20T12:39:38;101394.78;;;23.74;43.80
66945;BME280;53853;51.982;5.928;2023-07-20T12:42:11;101396.91;;;23.72;42.63
66945;BME280;53853;51.982;5.928;2023-07-20T12:44:42;101391.81;;;23.75;42.83
66945;BME280;53853;51.982;5.928;2023-07-20T12:47:12;101387.78;;;23.84;43.72
66945;BME280;53853;51.982;5.928;2023-07-20T12:49:42;101387.50;;;23.93;43.30
66945;BME280;53853;51.982;5.928;2023-07-20T12:52:13;101386.44;;;23.94;40.69
66945;BME280;53853;51.982;5.928;2023-07-20T12:54:46;101388.09;;;23.95;40.79
66945;BME280;53853;51.982;5.928;2023-07-20T12:57:15;101383.94;;;23.92;40.78
66945;BME280;53853;51.982;5.928;2023-07-20T12:59:45;101381.59;;;23.96;41.56
66945;BME280;53853;51.982;5.928;2023-07-20T13:02:15;101374.34;;;24.08;41.82
66945;BME280;53853;51.982;5.928;2023-07-20T13:04:45;101371.69;;;24.20;41.47
66945;BME280;53853;51.982;5.928;2023-07-20T13:07:15;101368.94;;;24.38;42.10
66945;BME280;53853;51.982;5.928;2023-07-20T13:09:47;101373.56;;;24.56;42.64
66945;BME280;53853;51.982;5.928;2023-07-20T13:12:17;101363.53;;;24.69;38.93
66945;BME280;53853;51.982;5.928;2023-07-20T13:14:47;101361.47;;;24.83;39.01